sensor_id;sensor_type;location;lat;lon;timestamp;P1;P2;P0
35654;PMS1003;21773;50.010;19.972;2023-10-19T00:01:45;52.00;42.25;31.75
35654;PMS1003;21773;50.010;19.972;2023-10-19T00:04:48;51.50;42.75;32.00
35654;PMS1003;21773;50.010;19.972;2023-10-19T00:07:51;56.00;44.75;34.00
35654;PMS1003;21773;50.010;19.972;2023-10-19T00:10:55;50.50;41.50;32.25
35654;PMS1003;21773;50.010;19.972;2023-10-19T00:14:04;53.40;43.40;33.40
35654;PMS1003;21773;50.010;19.972;2023-10-19T00:17:18;52.80;43.00;33.00
35654;PMS1003;21773;50.010;19.972;2023-10-19T00:20:22;62.00;48.80;39.00
35654;PMS1003;21773;50.010;19.972;2023-10-19T00:23:38;52.40;44.00;33.40
35654;PMS1003;21773;50.010;19.972;2023-10-19T00:26:42;55.00;44.00;33.80
35654;PMS1003;21773;50.010;19.972;2023-10-19T00:29:46;52.60;44.00;33.40
35654;PMS1003;21773;50.010;19.972;2023-10-19T00:32:53;50.00;41.00;31.00
35654;PMS1003;21773;50.010;19.972;2023-10-19T00:35:58;50.00;42.00;32.00
35654;PMS1003;21773;50.010;19.972;2023-10-19T00:39:10;55.00;44.00;34.00
35654;PMS1003;21773;50.010;19.972;2023-10-19T00:42:18;53.00;44.00;33.00
35654;PMS1003;21773;50.010;19.972;2023-10-19T00:45:25;53.00;43.75;32.75
35654;PMS1003;21773;50.010;19.972;2023-10-19T00:48:30;53.00;43.00;33.75
35654;PMS1003;21773;50.010;19.972;2023-10-19T00:51:36;49.00;40.00;31.00
35654;PMS1003;21773;50.010;19.972;2023-10-19T00:54:52;51.25;40.75;30.50
35654;PMS1003;21773;50.010;19.972;2023-10-19T00:57:56;52.67;43.67;33.00
35654;PMS1003;21773;50.010;19.972;2023-10-19T01:01:00;52.80;42.40;32.80
35654;PMS1003;21773;50.010;19.972;2023-10-19T01:04:08;48.75;40.50;30.75
35654;PMS1003;21773;50.010;19.972;2023-10-19T01:07:16;52.60;42.60;33.00
35654;PMS1003;21773;50.010;19.972;2023-10-19T01:10:24;50.50;42.75;32.00
35654;PMS1003;21773;50.010;19.972;2023-10-19T01:13:30;52.00;43.00;32.00
35654;PMS1003;21773;50.010;19.972;2023-10-19T01:16:36;50.00;42.00;32.00
35654;PMS1003;21773;50.010;19.972;2023-10-19T01:19:41;55.67;44.00;33.67
35654;PMS1003;21773;50.010;19.972;2023-10-19T01:22:50;52.80;43.00;33.00
35654;PMS1003;21773;50.010;19.972;2023-10-19T01:26:12;56.00;46.00;35.00
35654;PMS1003;21773;50.010;19.972;2023-10-19T01:29:20;52.80;43.40;32.80
35654;PMS1003;21773;50.010;19.972;2023-10-19T01:32:28;56.00;44.80;33.20
35654;PMS1003;21773;50.010;19.972;2023-10-19T01:35:31;51.75;43.00;33.00
35654;PMS1003;21773;50.010;19.972;2023-10-19T01:38:50;55.80;44.20;33.60
35654;PMS1003;21773;50.010;19.972;2023-10-19T01:41:55;55.75;45.75;35.00
35654;PMS1003;21773;50.010;19.972;2023-10-19T01:44:59;57.50;45.75;34.75
35654;PMS1003;21773;50.010;19.972;2023-10-19T01:48:03;54.80;44.00;33.80
35654;PMS1003;21773;50.010;19.972;2023-10-19T01:51:08;55.00;44.80;34.40
35654;PMS1003;21773;50.010;19.972;2023-10-19T01:54:15;60.40;47.40;36.60
35654;PMS1003;21773;50.010;19.972;2023-10-19T01:57:19;58.75;45.25;34.25
35654;PMS1003;21773;50.010;19.972;2023-10-19T02:00:23;55.20;45.20;34.00
35654;PMS1003;21773;50.010;19.972;2023-10-19T02:03:25;56.25;45.25;34.00
35654;PMS1003;21773;50.010;19.972;2023-10-19T02:06:30;56.20;46.00;35.00
35654;PMS1003;21773;50.010;19.972;2023-10-19T02:09:39;55.20;44.20;33.80
35654;PMS1003;21773;50.010;19.972;2023-10-19T02:12:43;56.00;44.25;33.50
35654;PMS1003;21773;50.010;19.972;2023-10-19T02:15:48;56.60;45.00;34.00
35654;PMS1003;21773;50.010;19.972;2023-10-19T02:18:53;53.00;43.25;33.00
35654;PMS1003;21773;50.010;19.972;2023-10-19T02:21:56;50.60;40.60;31.00
35654;PMS1003;21773;50.010;19.972;2023-10-19T02:25:02;56.00;45.00;34.40
35654;PMS1003;21773;50.010;19.972;2023-10-19T02:28:07;52.20;42.00;31.80
35654;PMS1003;21773;50.010;19.972;2023-10-19T02:31:10;46.50;38.75;29.75
35654;PMS1003;21773;50.010;19.972;2023-10-19T02:34:17;52.00;43.00;32.00
35654;PMS1003;21773;50.010;19.972;2023-10-19T02:37:20;53.00;43.50;33.00
35654;PMS1003;21773;50.010;19.972;2023-10-19T02:40:25;47.50;40.00;31.00
35654;PMS1003;21773;50.010;19.972;2023-10-19T02:43:33;53.00;42.00;32.00
35654;PMS1003;21773;50.010;19.972;2023-10-19T02:46:38;53.00;43.00;33.00
35654;PMS1003;21773;50.010;19.972;2023-10-19T02:49:41;45.80;35.80;27.20
35654;PMS1003;21773;50.010;19.972;2023-10-19T02:52:46;47.00;39.00;31.00
35654;PMS1003;21773;50.010;19.972;2023-10-19T02:55:51;49.60;40.60;31.40
35654;PMS1003;21773;50.010;19.972;2023-10-19T02:58:54;53.00;42.00;33.00
35654;PMS1003;21773;50.010;19.972;2023-10-19T03:02:04;53.60;44.60;33.60
35654;PMS1003;21773;50.010;19.972;2023-10-19T03:05:19;54.00;43.50;32.50
35654;PMS1003;21773;50.010;19.972;2023-10-19T03:08:21;46.60;38.60;30.00
35654;PMS1003;21773;50.010;19.972;2023-10-19T03:11:29;49.00;41.00;31.00
35654;PMS1003;21773;50.010;19.972;2023-10-19T03:14:34;51.50;42.75;32.75
35654;PMS1003;21773;50.010;19.972;2023-10-19T03:17:36;49.00;40.80;31.00
35654;PMS1003;21773;50.010;19.972;2023-10-19T03:20:44;49.40;40.60;31.60
35654;PMS1003;21773;50.010;19.972;2023-10-19T03:23:46;52.50;44.00;34.00
35654;PMS1003;21773;50.010;19.972;2023-10-19T03:26:53;53.20;43.20;33.60
35654;PMS1003;21773;50.010;19.972;2023-10-19T03:29:56;49.00;41.00;31.00
35654;PMS1003;21773;50.010;19.972;2023-10-19T03:33:01;49.00;40.00;31.00
35654;PMS1003;21773;50.010;19.972;2023-10-19T03:36:04;49.60;40.40;31.20
35654;PMS1003;21773;50.010;19.972;2023-10-19T03:39:14;50.00;42.00;32.40
35654;PMS1003;21773;50.010;19.972;2023-10-19T03:42:22;52.40;42.00;32.40
35654;PMS1003;21773;50.010;19.972;2023-10-19T03:45:27;55.00;43.00;33.00
35654;PMS1003;21773;50.010;19.972;2023-10-19T03:48:35;49.00;41.00;31.00
35654;PMS1003;21773;50.010;19.972;2023-10-19T03:51:40;49.80;40.60;30.80
35654;PMS1003;21773;50.010;19.972;2023-10-19T03:54:59;47.80;39.40;30.80
35654;PMS1003;21773;50.010;19.972;2023-10-19T03:58:04;48.50;41.00;31.25
35654;PMS1003;21773;50.010;19.972;2023-10-19T04:01:08;50.80;42.40;33.00
35654;PMS1003;21773;50.010;19.972;2023-10-19T04:04:12;50.00;42.00;32.00
35654;PMS1003;21773;50.010;19.972;2023-10-19T04:07:18;51.75;42.00;31.00
35654;PMS1003;21773;50.010;19.972;2023-10-19T04:10:23;50.25;41.50;31.25
35654;PMS1003;21773;50.010;19.972;2023-10-19T04:13:51;49.50;40.00;31.00
35654;PMS1003;21773;50.010;19.972;2023-10-19T04:16:55;50.20;42.00;31.80
35654;PMS1003;21773;50.010;19.972;2023-10-19T04:19:58;50.50;41.00;32.00
35654;PMS1003;21773;50.010;19.972;2023-10-19T04:23:10;49.00;41.00;31.00
35654;PMS1003;21773;50.010;19.972;2023-10-19T04:26:17;51.60;40.80;30.80
35654;PMS1003;21773;50.010;19.972;2023-10-19T04:29:22;47.25;40.00;30.00
35654;PMS1003;21773;50.010;19.972;2023-10-19T04:32:29;48.80;40.60;31.00
35654;PMS1003;21773;50.010;19.972;2023-10-19T04:35:33;49.75;40.25;31.00
35654;PMS1003;21773;50.010;19.972;2023-10-19T04:38:36;49.00;41.00;31.00
35654;PMS1003;21773;50.010;19.972;2023-10-19T04:41:40;50.00;41.00;31.00
35654;PMS1003;21773;50.010;19.972;2023-10-19T04:44:47;49.00;40.75;31.00
35654;PMS1003;21773;50.010;19.972;2023-10-19T04:47:50;47.60;39.00;30.00
35654;PMS1003;21773;50.010;19.972;2023-10-19T04:50:56;48.60;40.00;31.00
35654;PMS1003;21773;50.010;19.972;2023-10-19T04:54:00;53.40;41.60;31.60
35654;PMS1003;21773;50.010;19.972;2023-10-19T04:57:03;46.20;39.00;29.00
35654;PMS1003;21773;50.010;19.972;2023-10-19T05:00:09;47.00;38.00;28.20
35654;PMS1003;21773;50.010;19.972;2023-10-19T05:03:15;47.80;40.00;31.00
35654;PMS1003;21773;50.010;19.972;2023-10-19T05:06:20;47.20;39.00;29.80
35654;PMS1003;21773;50.010;19.972;2023-10-19T05:09:24;47.00;40.00;30.50
35654;PMS1003;21773;50.010;19.972;2023-10-19T05:12:27;44.75;36.25;28.25
35654;PMS1003;21773;50.010;19.972;2023-10-19T05:15:31;49.00;39.25;30.50
35654;PMS1003;21773;50.010;19.972;2023-10-19T05:18:35;48.80;39.80;30.00
35654;PMS1003;21773;50.010;19.972;2023-10-19T05:21:38;49.60;40.60;31.00
35654;PMS1003;21773;50.010;19.972;2023-10-19T05:24:41;46.60;39.00;29.00
35654;PMS1003;21773;50.010;19.972;2023-10-19T05:27:44;50.00;41.00;31.00
35654;PMS1003;21773;50.010;19.972;2023-10-19T05:30:50;43.40;36.00;28.00
35654;PMS1003;21773;50.010;19.972;2023-10-19T05:33:53;45.00;38.00;28.00
35654;PMS1003;21773;50.010;19.972;2023-10-19T05:36:56;44.75;36.75;28.00
35654;PMS1003;21773;50.010;19.972;2023-10-19T05:40:00;45.00;36.40;28.40
35654;PMS1003;21773;50.010;19.972;2023-10-19T05:43:06;41.00;35.25;27.00
35654;PMS1003;21773;50.010;19.972;2023-10-19T05:46:11;44.00;36.00;28.00
35654;PMS1003;21773;50.010;19.972;2023-10-19T05:49:15;40.00;34.75;27.50
35654;PMS1003;21773;50.010;19.972;2023-10-19T05:52:18;42.20;34.20;27.00
35654;PMS1003;21773;50.010;19.972;2023-10-19T05:55:22;36.20;33.00;26.00
35654;PMS1003;21773;50.010;19.972;2023-10-19T05:58:25;36.00;32.00;25.20
35654;PMS1003;21773;50.010;19.972;2023-10-19T06:01:29;37.00;31.00;24.25
35654;PMS1003;21773;50.010;19.972;2023-10-19T06:04:33;44.00;36.00;28.00
35654;PMS1003;21773;50.010;19.972;2023-10-19T06:07:37;40.00;35.00;27.80
35654;PMS1003;21773;50.010;19.972;2023-10-19T06:10:40;39.60;34.60;27.40
35654;PMS1003;21773;50.010;19.972;2023-10-19T06:13:44;38.60;33.00;26.00
35654;PMS1003;21773;50.010;19.972;2023-10-19T06:16:49;41.75;35.75;27.00
35654;PMS1003;21773;50.010;19.972;2023-10-19T06:19:52;39.80;33.00;26.40
35654;PMS1003;21773;50.010;19.972;2023-10-19T06:22:56;37.00;33.00;26.50
35654;PMS1003;21773;50.010;19.972;2023-10-19T06:26:09;44.00;37.00;28.50
35654;PMS1003;21773;50.010;19.972;2023-10-19T06:29:14;42.00;35.00;28.00
35654;PMS1003;21773;50.010;19.972;2023-10-19T06:32:18;39.40;33.40;27.00
35654;PMS1003;21773;50.010;19.972;2023-10-19T06:35:22;36.00;32.00;25.00
35654;PMS1003;21773;50.010;19.972;2023-10-19T06:38:26;32.40;30.00;24.00
35654;PMS1003;21773;50.010;19.972;2023-10-19T06:41:29;42.50;35.00;27.00
35654;PMS1003;21773;50.010;19.972;2023-10-19T06:44:32;35.00;32.00;26.00
35654;PMS1003;21773;50.010;19.972;2023-10-19T06:47:36;38.00;33.00;27.00
35654;PMS1003;21773;50.010;19.972;2023-10-19T06:50:40;41.20;34.60;26.60
35654;PMS1003;21773;50.010;19.972;2023-10-19T06:53:48;39.50;33.50;26.00
35654;PMS1003;21773;50.010;19.972;2023-10-19T06:56:51;37.00;33.00;26.00
35654;PMS1003;21773;50.010;19.972;2023-10-19T06:59:54;33.00;30.00;24.00
35654;PMS1003;21773;50.010;19.972;2023-10-19T07:02:59;33.50;31.00;24.00
35654;PMS1003;21773;50.010;19.972;2023-10-19T07:06:04;32.40;30.00;22.80
35654;PMS1003;21773;50.010;19.972;2023-10-19T07:09:14;29.00;27.40;21.00
35654;PMS1003;21773;50.010;19.972;2023-10-19T07:12:17;33.25;30.00;24.00
35654;PMS1003;21773;50.010;19.972;2023-10-19T07:15:21;28.00;25.80;20.60
35654;PMS1003;21773;50.010;19.972;2023-10-19T07:18:28;28.80;25.80;21.00
35654;PMS1003;21773;50.010;19.972;2023-10-19T07:21:31;30.00;26.60;20.00
35654;PMS1003;21773;50.010;19.972;2023-10-19T07:24:37;31.20;28.00;22.60
35654;PMS1003;21773;50.010;19.972;2023-10-19T07:27:40;26.80;23.20;20.00
35654;PMS1003;21773;50.010;19.972;2023-10-19T07:30:44;29.00;26.00;22.00
35654;PMS1003;21773;50.010;19.972;2023-10-19T07:33:49;28.40;27.40;22.40
35654;PMS1003;21773;50.010;19.972;2023-10-19T07:36:52;30.40;27.40;22.00
35654;PMS1003;21773;50.010;19.972;2023-10-19T07:39:55;28.00;24.50;20.00
35654;PMS1003;21773;50.010;19.972;2023-10-19T07:42:59;30.00;26.25;21.25
35654;PMS1003;21773;50.010;19.972;2023-10-19T07:46:03;29.00;26.00;20.80
35654;PMS1003;21773;50.010;19.972;2023-10-19T07:49:07;23.00;22.20;19.80
35654;PMS1003;21773;50.010;19.972;2023-10-19T07:52:10;25.00;24.00;20.00
35654;PMS1003;21773;50.010;19.972;2023-10-19T07:55:14;23.60;22.00;19.00
35654;PMS1003;21773;50.010;19.972;2023-10-19T07:58:17;26.00;23.20;20.00
35654;PMS1003;21773;50.010;19.972;2023-10-19T08:01:20;27.25;25.00;20.00
35654;PMS1003;21773;50.010;19.972;2023-10-19T08:04:25;26.50;24.00;20.00
35654;PMS1003;21773;50.010;19.972;2023-10-19T08:07:29;27.40;25.00;20.00
35654;PMS1003;21773;50.010;19.972;2023-10-19T08:10:33;23.60;21.00;18.00
35654;PMS1003;21773;50.010;19.972;2023-10-19T08:13:37;30.25;27.00;22.00
35654;PMS1003;21773;50.010;19.972;2023-10-19T08:16:41;26.00;24.50;20.50
35654;PMS1003;21773;50.010;19.972;2023-10-19T08:19:46;27.00;26.00;21.00
35654;PMS1003;21773;50.010;19.972;2023-10-19T08:22:50;29.60;28.00;22.00
35654;PMS1003;21773;50.010;19.972;2023-10-19T08:25:54;29.00;26.00;22.00
35654;PMS1003;21773;50.010;19.972;2023-10-19T08:28:58;29.00;27.00;22.00
35654;PMS1003;21773;50.010;19.972;2023-10-19T08:32:01;25.00;24.40;20.00
35654;PMS1003;21773;50.010;19.972;2023-10-19T08:35:06;30.00;28.40;23.00
35654;PMS1003;21773;50.010;19.972;2023-10-19T08:38:10;26.80;24.00;20.60
35654;PMS1003;21773;50.010;19.972;2023-10-19T08:41:13;27.00;24.40;20.00
35654;PMS1003;21773;50.010;19.972;2023-10-19T08:44:18;28.60;26.00;21.00
35654;PMS1003;21773;50.010;19.972;2023-10-19T08:47:21;29.00;26.40;22.40
35654;PMS1003;21773;50.010;19.972;2023-10-19T08:50:29;31.00;29.00;23.00
35654;PMS1003;21773;50.010;19.972;2023-10-19T08:53:33;29.00;28.00;22.40
35654;PMS1003;21773;50.010;19.972;2023-10-19T08:56:41;27.60;26.60;21.60
35654;PMS1003;21773;50.010;19.972;2023-10-19T08:59:46;27.00;27.00;23.00
35654;PMS1003;21773;50.010;19.972;2023-10-19T09:02:50;33.00;30.00;24.00
35654;PMS1003;21773;50.010;19.972;2023-10-19T09:05:55;32.00;29.80;23.00
35654;PMS1003;21773;50.010;19.972;2023-10-19T09:08:58;29.67;27.67;22.67
35654;PMS1003;21773;50.010;19.972;2023-10-19T09:12:01;30.25;29.25;23.00
35654;PMS1003;21773;50.010;19.972;2023-10-19T09:15:05;34.40;31.00;24.00
35654;PMS1003;21773;50.010;19.972;2023-10-19T09:18:24;33.40;31.00;24.40
35654;PMS1003;21773;50.010;19.972;2023-10-19T09:21:32;39.67;33.00;26.00
35654;PMS1003;21773;50.010;19.972;2023-10-19T09:24:36;28.20;28.20;22.60
35654;PMS1003;21773;50.010;19.972;2023-10-19T09:27:40;32.40;30.00;24.00
35654;PMS1003;21773;50.010;19.972;2023-10-19T09:30:43;34.00;31.00;24.25
35654;PMS1003;21773;50.010;19.972;2023-10-19T09:33:47;33.40;30.00;24.00
35654;PMS1003;21773;50.010;19.972;2023-10-19T09:36:53;35.00;30.00;24.00
35654;PMS1003;21773;50.010;19.972;2023-10-19T09:39:56;40.40;33.40;27.00
35654;PMS1003;21773;50.010;19.972;2023-10-19T09:43:00;33.00;29.40;23.00
35654;PMS1003;21773;50.010;19.972;2023-10-19T09:46:09;26.00;25.00;21.00
35654;PMS1003;21773;50.010;19.972;2023-10-19T09:49:14;32.75;29.25;23.25
35654;PMS1003;21773;50.010;19.972;2023-10-19T09:52:18;28.00;27.00;22.00
35654;PMS1003;21773;50.010;19.972;2023-10-19T09:55:24;32.60;29.00;23.00
35654;PMS1003;21773;50.010;19.972;2023-10-19T09:58:33;31.40;29.60;23.00
35654;PMS1003;21773;50.010;19.972;2023-10-19T10:08:47;33.00;29.80;23.00
35654;PMS1003;21773;50.010;19.972;2023-10-19T10:11:51;32.00;28.80;23.00
35654;PMS1003;21773;50.010;19.972;2023-10-19T10:14:58;32.60;30.60;24.00
35654;PMS1003;21773;50.010;19.972;2023-10-19T10:18:11;31.67;29.00;23.00
35654;PMS1003;21773;50.010;19.972;2023-10-19T10:21:16;34.50;31.50;24.00
35654;PMS1003;21773;50.010;19.972;2023-10-19T10:24:23;28.00;27.00;22.00
35654;PMS1003;21773;50.010;19.972;2023-10-19T10:27:29;33.00;30.00;23.00
35654;PMS1003;21773;50.010;19.972;2023-10-19T10:30:32;30.20;28.80;22.00
35654;PMS1003;21773;50.010;19.972;2023-10-19T10:33:38;32.20;29.20;23.00
35654;PMS1003;21773;50.010;19.972;2023-10-19T10:36:58;31.80;28.80;23.00
35654;PMS1003;21773;50.010;19.972;2023-10-19T10:40:06;33.60;30.00;24.00
35654;PMS1003;21773;50.010;19.972;2023-10-19T10:43:11;31.40;29.40;23.00
35654;PMS1003;21773;50.010;19.972;2023-10-19T10:46:14;34.40;30.00;24.00
35654;PMS1003;21773;50.010;19.972;2023-10-19T10:49:18;35.25;32.00;25.25
35654;PMS1003;21773;50.010;19.972;2023-10-19T10:52:23;32.60;31.00;24.00
35654;PMS1003;21773;50.010;19.972;2023-10-19T10:55:32;32.60;30.00;24.00
35654;PMS1003;21773;50.010;19.972;2023-10-19T10:58:35;34.40;31.80;25.60
35654;PMS1003;21773;50.010;19.972;2023-10-19T11:01:38;36.40;32.00;25.40
35654;PMS1003;21773;50.010;19.972;2023-10-19T11:04:43;34.00;31.60;25.60
35654;PMS1003;21773;50.010;19.972;2023-10-19T11:08:02;34.75;30.00;23.00
35654;PMS1003;21773;50.010;19.972;2023-10-19T11:11:09;33.40;30.00;24.00
35654;PMS1003;21773;50.010;19.972;2023-10-19T11:14:13;37.60;32.00;25.80
35654;PMS1003;21773;50.010;19.972;2023-10-19T11:17:17;36.40;32.40;26.40
35654;PMS1003;21773;50.010;19.972;2023-10-19T11:20:21;34.60;32.00;26.00
35654;PMS1003;21773;50.010;19.972;2023-10-19T11:23:34;24.20;23.00;20.00
35654;PMS1003;21773;50.010;19.972;2023-10-19T11:26:40;33.20;30.00;24.00
35654;PMS1003;21773;50.010;19.972;2023-10-19T11:29:53;32.75;30.25;24.00
35654;PMS1003;21773;50.010;19.972;2023-10-19T11:32:57;31.60;26.00;22.00
35654;PMS1003;21773;50.010;19.972;2023-10-19T11:36:03;32.50;30.00;23.00
35654;PMS1003;21773;50.010;19.972;2023-10-19T11:39:06;34.00;31.00;25.00
35654;PMS1003;21773;50.010;19.972;2023-10-19T11:42:14;34.00;31.50;25.25
35654;PMS1003;21773;50.010;19.972;2023-10-19T11:45:18;33.60;31.00;24.60
35654;PMS1003;21773;50.010;19.972;2023-10-19T11:48:21;34.60;32.40;26.00
35654;PMS1003;21773;50.010;19.972;2023-10-19T11:51:24;34.50;31.00;24.00
35654;PMS1003;21773;50.010;19.972;2023-10-19T11:54:29;34.00;31.00;24.50
35654;PMS1003;21773;50.010;19.972;2023-10-19T11:57:34;33.40;30.40;24.00
35654;PMS1003;21773;50.010;19.972;2023-10-19T12:00:38;34.60;30.60;24.60
35654;PMS1003;21773;50.010;19.972;2023-10-19T12:03:41;34.25;31.25;24.25
35654;PMS1003;21773;50.010;19.972;2023-10-19T12:06:47;34.40;31.20;24.00
35654;PMS1003;21773;50.010;19.972;2023-10-19T12:09:50;38.40;33.40;26.40
35654;PMS1003;21773;50.010;19.972;2023-10-19T12:12:55;35.33;31.00;24.00
35654;PMS1003;21773;50.010;19.972;2023-10-19T12:16:02;34.50;31.75;24.75
35654;PMS1003;21773;50.010;19.972;2023-10-19T12:19:06;31.00;29.50;23.00
35654;PMS1003;21773;50.010;19.972;2023-10-19T12:22:10;34.75;31.50;24.50
35654;PMS1003;21773;50.010;19.972;2023-10-19T12:25:13;35.40;32.00;25.00
35654;PMS1003;21773;50.010;19.972;2023-10-19T12:28:18;33.60;31.60;24.00
35654;PMS1003;21773;50.010;19.972;2023-10-19T12:31:22;34.40;32.00;26.00
35654;PMS1003;21773;50.010;19.972;2023-10-19T12:34:25;33.40;30.00;23.40
35654;PMS1003;21773;50.010;19.972;2023-10-19T12:37:31;34.50;32.00;24.00
35654;PMS1003;21773;50.010;19.972;2023-10-19T12:40:35;35.00;32.00;26.00
35654;PMS1003;21773;50.010;19.972;2023-10-19T12:43:40;31.20;29.20;23.00
35654;PMS1003;21773;50.010;19.972;2023-10-19T12:46:43;33.00;30.40;24.00
35654;PMS1003;21773;50.010;19.972;2023-10-19T12:49:47;32.20;30.00;24.00
35654;PMS1003;21773;50.010;19.972;2023-10-19T12:52:54;34.40;31.40;24.00
35654;PMS1003;21773;50.010;19.972;2023-10-19T12:55:57;41.50;35.25;27.50
35654;PMS1003;21773;50.010;19.972;2023-10-19T12:59:02;31.40;28.40;22.40
35654;PMS1003;21773;50.010;19.972;2023-10-19T13:02:08;31.40;30.40;24.00
35654;PMS1003;21773;50.010;19.972;2023-10-19T13:05:13;33.40;29.00;23.00
35654;PMS1003;21773;50.010;19.972;2023-10-19T13:08:19;35.40;31.00;24.00
35654;PMS1003;21773;50.010;19.972;2023-10-19T13:11:23;33.60;30.00;23.00
35654;PMS1003;21773;50.010;19.972;2023-10-19T13:14:27;29.40;26.40;21.40
35654;PMS1003;21773;50.010;19.972;2023-10-19T13:17:30;32.80;30.80;23.00
35654;PMS1003;21773;50.010;19.972;2023-10-19T13:20:34;29.25;28.25;23.00
35654;PMS1003;21773;50.010;19.972;2023-10-19T13:23:38;33.50;30.50;24.00
35654;PMS1003;21773;50.010;19.972;2023-10-19T13:26:41;31.40;30.00;23.00
35654;PMS1003;21773;50.010;19.972;2023-10-19T13:29:49;34.40;30.00;23.80
35654;PMS1003;21773;50.010;19.972;2023-10-19T13:32:52;36.80;32.00;25.60
35654;PMS1003;21773;50.010;19.972;2023-10-19T13:35:56;32.20;30.00;24.00
35654;PMS1003;21773;50.010;19.972;2023-10-19T13:39:00;38.80;33.00;26.40
35654;PMS1003;21773;50.010;19.972;2023-10-19T13:42:03;39.60;33.60;26.00
35654;PMS1003;21773;50.010;19.972;2023-10-19T13:45:09;35.20;31.60;24.80
35654;PMS1003;21773;50.010;19.972;2023-10-19T13:48:16;38.00;33.00;26.00
35654;PMS1003;21773;50.010;19.972;2023-10-19T13:51:19;40.00;33.40;26.40
35654;PMS1003;21773;50.010;19.972;2023-10-19T13:54:22;39.00;33.00;26.00
35654;PMS1003;21773;50.010;19.972;2023-10-19T13:57:25;37.00;32.00;24.00
35654;PMS1003;21773;50.010;19.972;2023-10-19T14:00:30;35.00;32.00;25.00
35654;PMS1003;21773;50.010;19.972;2023-10-19T14:03:37;36.60;33.20;26.40
35654;PMS1003;21773;50.010;19.972;2023-10-19T14:06:40;41.40;34.20;26.80
35654;PMS1003;21773;50.010;19.972;2023-10-19T14:09:44;36.80;32.80;25.80
35654;PMS1003;21773;50.010;19.972;2023-10-19T14:12:47;39.25;32.25;24.00
35654;PMS1003;21773;50.010;19.972;2023-10-19T14:15:55;41.60;36.00;28.00
35654;PMS1003;21773;50.010;19.972;2023-10-19T14:18:59;41.20;35.20;27.60
35654;PMS1003;21773;50.010;19.972;2023-10-19T14:22:04;40.00;34.25;27.00
35654;PMS1003;21773;50.010;19.972;2023-10-19T14:25:09;39.80;35.00;27.40
35654;PMS1003;21773;50.010;19.972;2023-10-19T14:28:15;40.60;35.00;28.00
35654;PMS1003;21773;50.010;19.972;2023-10-19T14:31:19;45.00;37.00;28.00
35654;PMS1003;21773;50.010;19.972;2023-10-19T14:34:22;45.00;37.00;28.00
35654;PMS1003;21773;50.010;19.972;2023-10-19T14:37:28;37.00;32.00;25.00
35654;PMS1003;21773;50.010;19.972;2023-10-19T14:40:31;43.25;34.25;26.25
35654;PMS1003;21773;50.010;19.972;2023-10-19T14:43:34;42.00;35.00;27.00
35654;PMS1003;21773;50.010;19.972;2023-10-19T14:46:41;41.00;33.40;26.40
35654;PMS1003;21773;50.010;19.972;2023-10-19T14:49:44;38.00;33.00;26.00
35654;PMS1003;21773;50.010;19.972;2023-10-19T14:52:49;44.00;37.00;29.00
35654;PMS1003;21773;50.010;19.972;2023-10-19T14:55:54;41.25;34.75;27.75
35654;PMS1003;21773;50.010;19.972;2023-10-19T14:58:58;36.60;32.40;24.60
35654;PMS1003;21773;50.010;19.972;2023-10-19T15:02:03;43.40;36.60;28.60
35654;PMS1003;21773;50.010;19.972;2023-10-19T15:05:13;42.60;36.00;28.00
35654;PMS1003;21773;50.010;19.972;2023-10-19T15:08:17;41.50;35.00;28.00
35654;PMS1003;21773;50.010;19.972;2023-10-19T15:11:21;44.80;36.60;28.40
35654;PMS1003;21773;50.010;19.972;2023-10-19T15:14:26;38.25;33.50;25.75
35654;PMS1003;21773;50.010;19.972;2023-10-19T15:17:30;33.60;31.60;24.00
35654;PMS1003;21773;50.010;19.972;2023-10-19T15:20:34;40.00;33.00;26.00
35654;PMS1003;21773;50.010;19.972;2023-10-19T15:23:37;40.40;35.00;28.00
35654;PMS1003;21773;50.010;19.972;2023-10-19T15:26:41;40.40;32.40;26.00
35654;PMS1003;21773;50.010;19.972;2023-10-19T15:29:45;37.25;32.00;25.00
35654;PMS1003;21773;50.010;19.972;2023-10-19T15:32:50;44.00;37.80;29.20
35654;PMS1003;21773;50.010;19.972;2023-10-19T15:35:55;40.40;35.00;28.00
35654;PMS1003;21773;50.010;19.972;2023-10-19T15:38:59;34.50;32.25;26.00
35654;PMS1003;21773;50.010;19.972;2023-10-19T15:42:02;42.00;33.00;26.50
35654;PMS1003;21773;50.010;19.972;2023-10-19T15:45:10;40.00;35.00;27.00
35654;PMS1003;21773;50.010;19.972;2023-10-19T15:48:15;35.20;32.00;24.60
35654;PMS1003;21773;50.010;19.972;2023-10-19T15:51:18;44.00;35.00;28.00
35654;PMS1003;21773;50.010;19.972;2023-10-19T15:54:21;43.40;36.00;28.00
35654;PMS1003;21773;50.010;19.972;2023-10-19T15:57:24;41.67;35.00;27.00
35654;PMS1003;21773;50.010;19.972;2023-10-19T16:00:27;40.00;35.00;28.00
35654;PMS1003;21773;50.010;19.972;2023-10-19T16:03:32;44.60;35.00;27.60
35654;PMS1003;21773;50.010;19.972;2023-10-19T16:06:36;39.00;35.00;27.00
35654;PMS1003;21773;50.010;19.972;2023-10-19T16:09:39;44.50;36.00;28.00
35654;PMS1003;21773;50.010;19.972;2023-10-19T16:12:42;42.60;36.40;28.00
35654;PMS1003;21773;50.010;19.972;2023-10-19T16:15:46;45.00;37.00;28.25
35654;PMS1003;21773;50.010;19.972;2023-10-19T16:18:51;36.00;32.20;26.00
35654;PMS1003;21773;50.010;19.972;2023-10-19T16:21:54;38.00;32.40;26.00
35654;PMS1003;21773;50.010;19.972;2023-10-19T16:24:57;39.00;34.00;26.67
35654;PMS1003;21773;50.010;19.972;2023-10-19T16:28:00;39.50;33.50;27.00
35654;PMS1003;21773;50.010;19.972;2023-10-19T16:31:03;36.50;32.25;26.00
35654;PMS1003;21773;50.010;19.972;2023-10-19T16:34:08;40.20;35.00;27.80
35654;PMS1003;21773;50.010;19.972;2023-10-19T16:37:12;42.50;36.00;28.00
35654;PMS1003;21773;50.010;19.972;2023-10-19T16:40:15;41.00;35.00;28.00
35654;PMS1003;21773;50.010;19.972;2023-10-19T16:43:18;41.00;34.50;27.50
35654;PMS1003;21773;50.010;19.972;2023-10-19T16:46:21;40.75;35.00;27.75
35654;PMS1003;21773;50.010;19.972;2023-10-19T16:49:26;41.40;35.00;27.80
35654;PMS1003;21773;50.010;19.972;2023-10-19T16:52:29;37.50;33.00;26.00
35654;PMS1003;21773;50.010;19.972;2023-10-19T16:55:33;42.20;35.80;27.80
35654;PMS1003;21773;50.010;19.972;2023-10-19T16:58:37;40.00;35.00;27.60
35654;PMS1003;21773;50.010;19.972;2023-10-19T17:01:40;35.60;32.20;25.00
35654;PMS1003;21773;50.010;19.972;2023-10-19T17:04:47;36.80;30.00;24.00
35654;PMS1003;21773;50.010;19.972;2023-10-19T17:07:50;34.00;30.40;23.40
35654;PMS1003;21773;50.010;19.972;2023-10-19T17:10:54;32.60;29.60;23.00